Station Historical Data
Daily Summary for October 26, 2017 Units:  English    Metric   Both
« Previous Day
Next Day »
Daily Weekly Monthly Yearly Custom
  High: Low: Average:
Temperature: 58.1 °F 41.2 °F 51.8 °F
Dew Point: 49.6 °F 36.4 °F 46.8 °F
Humidity: 88% 73% 83%
Wind Speed: 0.0mph 0.0mph 0mph
Wind Gust: 0.0mph - -
Wind- -
Pressure: 30.07 in 30.00 in -
Precipitation: 0.00 in    
Historical Graphs
 
 
Tabular Data for October 26, 2017
Time Temperature Dew Point Pressure Wind Wind Speed Wind Gust Humidity Rainfall Rate (Hourly) Conditions
00:03 41.4 °F 36.6 °F 30.00 in Calm     83% 0.00 in CLR
00:08 41.3 °F 36.8 °F 30.00 in Calm     84% 0.00 in CLR
00:13 41.3 °F 36.5 °F 30.00 in Calm     83% 0.00 in CLR
00:18 41.2 °F 36.4 °F 30.00 in Calm     83% 0.00 in CLR
00:24 41.3 °F 36.8 °F 30.00 in Calm     84% 0.00 in CLR
00:29 41.2 °F 36.7 °F 30.00 in Calm     84% 0.00 in CLR
00:34 41.2 °F 36.7 °F 30.00 in Calm     84% 0.00 in CLR
19:25 58.1 °F 49.4 °F 30.00 in Calm     73% 0.00 in CLR
19:30 57.6 °F 49.0 °F 30.00 in Calm     73% 0.00 in CLR
19:35 57.3 °F 49.0 °F 30.00 in Calm     74% 0.00 in CLR
19:40 56.9 °F 49.4 °F 30.00 in Calm     76% 0.00 in CLR
19:45 56.6 °F 49.1 °F 30.00 in Calm     76% 0.00 in CLR
19:50 56.3 °F 49.2 °F 30.01 in Calm     77% 0.00 in CLR
19:55 56.0 °F 49.6 °F 30.01 in Calm     79% 0.00 in CLR
20:00 55.7 °F 49.3 °F 30.01 in Calm     79% 0.00 in CLR
20:05 55.3 °F 49.3 °F 30.01 in Calm     80% 0.00 in CLR
20:10 54.9 °F 48.9 °F 30.01 in Calm     80% 0.00 in CLR
20:15 54.6 °F 48.6 °F 30.01 in Calm     80% 0.00 in CLR
20:20 54.4 °F 48.7 °F 30.02 in Calm     81% 0.00 in CLR
20:25 54.3 °F 48.9 °F 30.02 in Calm     82% 0.00 in CLR
20:30 54.2 °F 48.8 °F 30.02 in Calm     82% 0.00 in CLR
20:35 53.8 °F 48.4 °F 30.02 in Calm     82% 0.00 in CLR
20:40 53.6 °F 48.6 °F 30.03 in Calm     83% 0.00 in CLR
20:45 53.7 °F 49.0 °F 30.03 in Calm     84% 0.00 in CLR
20:55 54.2 °F 48.5 °F 30.03 in Calm     81% 0.00 in CLR
21:00 54.2 °F 48.8 °F 30.03 in Calm     82% 0.00 in CLR
21:05 53.9 °F 48.5 °F 30.03 in Calm     82% 0.00 in CLR
21:10 53.7 °F 48.3 °F 30.03 in Calm     82% 0.00 in CLR
21:15 53.6 °F 48.2 °F 30.03 in Calm     82% 0.00 in CLR
21:20 53.4 °F 48.4 °F 30.03 in Calm     83% 0.00 in CLR
21:25 53.2 °F 48.2 °F 30.03 in Calm     83% 0.00 in CLR
21:30 52.9 °F 48.2 °F 30.04 in Calm     84% 0.00 in CLR
21:35 52.7 °F 48.0 °F 30.04 in Calm     84% 0.00 in CLR
21:40 52.5 °F 48.1 °F 30.04 in Calm     85% 0.00 in CLR
21:45 52.3 °F 47.9 °F 30.04 in Calm     85% 0.00 in CLR
21:50 52.0 °F 47.6 °F 30.04 in Calm     85% 0.00 in CLR
21:55 51.9 °F 47.8 °F 30.04 in Calm     86% 0.00 in CLR
22:00 51.8 °F 47.8 °F 30.04 in Calm     86% 0.00 in CLR
22:05 51.8 °F 48.1 °F 30.04 in Calm     87% 0.00 in CLR
22:10 51.8 °F 48.1 °F 30.04 in Calm     87% 0.00 in CLR
22:15 51.7 °F 48.0 °F 30.04 in Calm     87% 0.00 in CLR
22:20 51.7 °F 47.9 °F 30.04 in Calm     87% 0.00 in CLR
22:25 51.6 °F 47.9 °F 30.05 in Calm     87% 0.00 in CLR
22:30 51.8 °F 48.3 °F 30.05 in Calm     88% 0.00 in CLR
22:35 52.2 °F 48.4 °F 30.05 in Calm     87% 0.00 in CLR
22:40 52.2 °F 48.1 °F 30.05 in Calm     86% 0.00 in CLR
22:45 52.3 °F 47.9 °F 30.05 in Calm     85% 0.00 in CLR
22:50 52.3 °F 47.6 °F 30.05 in Calm     84% 0.00 in CLR
22:55 52.4 °F 47.7 °F 30.05 in Calm     84% 0.00 in CLR
23:00 52.3 °F 47.9 °F 30.05 in Calm     85% 0.00 in CLR
23:05 52.1 °F 47.7 °F 30.06 in Calm     85% 0.00 in CLR
23:10 51.9 °F 47.5 °F 30.06 in Calm     85% 0.00 in CLR
23:15 51.6 °F 47.2 °F 30.06 in Calm     85% 0.00 in CLR
23:20 51.3 °F 47.3 °F 30.06 in Calm     86% 0.00 in CLR
23:25 51.0 °F 47.0 °F 30.06 in Calm     86% 0.00 in CLR
23:30 50.7 °F 46.7 °F 30.06 in Calm     86% 0.00 in CLR
23:36 50.4 °F 46.7 °F 30.06 in Calm     87% 0.00 in CLR
23:41 50.3 °F 46.6 °F 30.06 in Calm     87% 0.00 in CLR
23:46 50.1 °F 46.7 °F 30.06 in Calm     88% 0.00 in CLR
23:51 50.0 °F 46.6 °F 30.07 in Calm     88% 0.00 in CLR
23:56 49.8 °F 46.4 °F 30.07 in Calm     88% 0.00 in CLR
Piedmont Bend
Compliments of Weather Underground - 2 mb